x

Port Orford - 15 Nm West Of Port Orford, Or (46015) Wave Buoy

10:50pm - Sat 1st Aug 2015 All times are PDT. -7 hours from GMT.

  • Sig Wave height 4.9ft
  • Swell Direction
  • Peak Period 7s
  • Average Period 6s
  • Wind
    2mph, 4mph gusts
  • Sea Temp 56°f
  • Air Temp 56°f
  • Sea Pressure 1015.4mb
  • Port Orford - 15 Nm West Of Port Orford, Or
  • Port Orford - 15 Nm West Of Port Orford, Or

More Historic Weather Station data

Upgrade to MSW Pro to gain access to the past 30 days of data for over 8000 Wavebouys and Weather Stations around the globe.

Join Pro

Comparision Forecast

View Surf forecast
   
Sat 08/01 10:50pm 5ft 7s 6s 2 4 mph 1015.4mb 56f 56f
9:50pm 5ft 7s 6s 4 7 mph 1015.3mb 56f 56f
8:50pm 5.5ft 8s 7s 7
mph
1014.9mb 57f 56f
7:50pm 5ft 8s 7s 7
mph
1015.2mb 56f 55f
6:50pm 5.5ft 8s 6s 7 9 mph 1014.9mb 56f 55f
5:50pm 5ft 8s 6s 9
mph
1015.2mb 57f 55f
4:50pm 5.5ft 8s 6s 7 9 mph 1015.5mb 56f 55f
3:50pm 5.5ft 8s 6s 7
mph
1016.1mb 57f 55f
2:50pm 6ft 8s 7s 2
mph
1016mb 56f 56f
1:50pm 6.5ft 8s 7s 2
mph
1016.3mb 57f 56f
12:50pm 6.5ft 8s 7s 2 4 mph 1016.1mb 57f 55f
11:50am 6ft 7s 6s 2
mph
1016mb 56f 55f
10:50am 6ft 7s 6s 2 4 mph 1016mb 55f 54f
9:50am 6ft 8s 6s 4 7 mph 1015.9mb 55f 54f
8:50am 5.5ft 8s 6s 11 13 mph 1015.9mb 55f 53f
7:50am 5.5ft 8s 6s 13
mph
1015.7mb 55f 53f
6:50am 5ft 7s 6s 9 11 mph 1015.3mb 54f 53f
5:50am 5ft 7s 5s 11 13 mph 1014.7mb 54f 52f
4:50am 5.5ft 7s 6s 13 16 mph 1014.5mb 55f 53f
3:50am 5.5ft 7s 6s 16 20 mph 1013.8mb 55f 55f
2:50am 6ft 7s 6s 11 13 mph 1014.9mb 54f 56f
1:50am 6ft 7s 6s 2
mph
1015mb 54f 53f
12:50am 6ft 7s 6s 9 11 mph 1015.4mb 54f 53f
Fri 07/31 11:50pm 6ft 7s 6s 7 9 mph 1015.7mb 54f 55f
10:50pm 6ft 7s 6s  -  4 mph 1016.3mb 54f 56f
9:50pm 6ft 7s 6s 7 9 mph 1016mb 54f 55f
8:50pm 6ft 7s 6s 20 27 mph 1014.9mb 54f 58f
7:50pm 6ft 7s 6s 16 18 mph 1013.6mb 54f 56f
6:50pm 6ft 7s 6s 18 20 mph 1013.4mb 55f 57f
5:50pm 6ft 7s 5s 18 20 mph 1013.5mb 55f 57f
4:50pm 6ft 7s 5s 20 22 mph 1013.8mb 55f 57f
3:50pm 6ft 7s 5s 20 25 mph 1014.4mb 55f 58f
2:50pm 6ft 7s 5s 22 25 mph 1014.9mb 55f 58f
1:50pm 6.5ft 7s 5s 22 27 mph 1015.2mb 56f 58f
12:50pm 6ft 7s 5s 20 25 mph 1015.7mb 56f 58f
11:50am 6ft 15s 6s 20 25 mph 1016.2mb 56f 57f
10:50am 5ft 8s 5s 20 25 mph 1016.1mb 55f 57f
9:50am 5ft 7s 5s 18 22 mph 1016.3mb 55f 57f
8:50am 5.5ft 8s 5s 25 29 mph 1016.2mb 56f 57f
7:50am 5ft 8s 6s 16 18 mph 1016.7mb 56f 56f
6:50am 4.5ft 8s 5s 16 20 mph 1016.6mb 56f 57f
5:50am 5.5ft 8s 6s 16 18 mph 1016mb 56f 57f
4:50am 4.5ft 7s 6s 16 20 mph 1016.1mb 56f 58f
3:50am 5ft 7s 6s 18 20 mph 1016.2mb 55f 58f
2:50am 5ft 15s 6s 18 20 mph 1016.3mb 55f 58f
1:50am 5ft 8s 6s 18 20 mph 1016.4mb 55f 58f
12:50am 5ft 8s 6s 20 22 mph 1016.6mb 55f 59f
Thu 07/30 11:50pm 5ft 7s 6s 16 18 mph 1016.9mb 55f 59f
10:50pm 5ft 8s 6s 18 20 mph 1016.8mb 56f 59f
9:50pm 5ft 8s 7s 11 13 mph 1017.5mb 57f 59f
8:50pm 5ft 9s 7s 11 13 mph 1016.9mb 58f 60f
7:50pm 5.5ft 9s 7s 7
mph
1017.2mb 57f 60f
6:50pm 5ft 7s 7s 4
mph
1017.3mb 59f 61f
5:50pm 5.5ft 9s 7s 4
mph
1017.3mb 60f 61f
4:50pm 5.5ft 9s 6s 2
mph
1017.8mb 60f 60f
3:50pm 6ft 8s 7s 4
mph
1017.8mb 59f 59f
2:50pm 6ft 8s 6s 2 4 mph 1018mb 58f 57f
1:50pm 6ft 8s 6s 4
mph
1018mb 56f 57f
12:50pm 6.5ft 8s 6s 4
mph
1017.8mb 55f 56f
11:50am 6ft 7s 7s 7 11 mph 1017.5mb 54f 56f
10:50am 7ft 8s 7s 9 11 mph 1017.1mb 54f 56f
9:50am 6ft 8s 6s 11 13 mph 1016.7mb 54f 56f
8:50am 6.5ft 8s 7s 11
mph
1016.6mb 54f 55f
7:50am 6.5ft 7s 6s 11
mph
1016.2mb 53f 55f
6:50am 6.5ft 7s 6s 13 16 mph 1015.5mb 54f 55f
5:50am 7ft 8s 6s 16 18 mph 1014.7mb 54f 56f
4:50am 7ft 8s 6s 16 20 mph 1014.6mb 54f 56f
3:50am 7ft 8s 6s 18 20 mph 1014.3mb 54f 56f
2:50am 7ft 9s 6s 11 16 mph 1014.8mb 54f 56f
1:50am 7.5ft 7s 6s 13 18 mph 1014.6mb 54f 57f
12:50am 7ft 7s 6s 20 22 mph 1014.1mb 54f 57f
Wed 07/29 11:50pm 7ft 8s 6s 22 25 mph 1013.8mb 54f 57f
10:50pm 6ft 8s 6s 18 20 mph 1014.6mb 54f 56f
9:50pm 6.5ft 7s 6s 16 18 mph 1014.8mb 54f 56f
8:50pm 7ft 7s 6s 18 20 mph 1014.3mb 54f 57f
7:50pm 7ft 7s 6s 18 20 mph 1014.3mb 54f 57f
6:50pm 7ft 8s 6s 20 22 mph 1014.1mb 54f 58f
5:50pm 7.5ft 8s 6s 20 25 mph 1014.1mb 54f 58f
4:50pm 7ft 8s 6s 22 27 mph 1014.3mb 54f 58f
3:50pm 7ft 8s 5s 25 29 mph 1014.4mb 54f 58f
2:50pm 7.5ft 7s 6s 22 29 mph 1014.9mb 54f 58f
1:50pm 7ft 7s 5s 27 29 mph 1014.6mb 53f 58f
12:50pm 7ft 7s 5s 27 31 mph 1014.7mb 53f 58f
11:50am 7.5ft 7s 6s 25 29 mph 1015mb 53f 58f
10:50am 7.5ft 8s 6s 27 31 mph 1014.9mb 53f 57f
9:50am 7.5ft 7s 6s 25 29 mph 1014.7mb 53f 57f
8:50am 8ft 7s 6s 27 31 mph 1014.7mb 53f 57f
7:50am 7.5ft 8s 6s 25 29 mph 1015.1mb 53f 56f
6:50am 7ft 7s 5s 25 29 mph 1015.2mb 53f 56f